createdAt,value
2019-03-09T00:02:01.062Z,73.01
2019-03-09T00:04:31.118Z,73.46
2019-03-09T00:07:01.139Z,73.83
2019-03-09T00:09:31.211Z,73.57
2019-03-09T00:12:01.232Z,73.17
2019-03-09T00:14:31.262Z,72.72
2019-03-09T00:17:01.363Z,72.82
2019-03-09T00:19:31.411Z,73.10
2019-03-09T00:22:01.457Z,73.00
2019-03-09T00:24:31.495Z,73.15
2019-03-09T00:27:01.525Z,72.73
2019-03-09T00:29:31.558Z,72.44
2019-03-09T00:32:01.594Z,72.53
2019-03-09T00:34:31.635Z,72.81
2019-03-09T00:37:01.988Z,73.12
2019-03-09T00:39:32.022Z,72.68
2019-03-09T00:42:02.043Z,72.56
2019-03-09T00:44:32.074Z,72.58
2019-03-09T00:47:02.448Z,72.15
2019-03-09T00:49:32.778Z,72.33
2019-03-09T00:52:02.802Z,71.51
2019-03-09T00:54:33.096Z,71.51
2019-03-09T00:57:03.115Z,72.20
2019-03-09T00:59:33.151Z,72.02
2019-03-09T01:02:03.467Z,71.79
2019-03-09T01:04:33.519Z,71.88
2019-03-09T01:07:03.546Z,71.78
2019-03-09T01:09:33.571Z,71.81
2019-03-09T01:12:03.595Z,71.81
2019-03-09T01:14:33.639Z,71.96
2019-03-09T01:17:03.669Z,71.36
2019-03-09T01:19:33.983Z,71.36
2019-03-09T01:22:04.033Z,71.24
2019-03-09T01:24:34.067Z,71.21
2019-03-09T01:27:04.444Z,71.24
2019-03-09T01:29:34.761Z,71.20
2019-03-09T01:32:05.081Z,71.34
2019-03-09T01:34:35.110Z,71.28
2019-03-09T01:37:05.133Z,71.26
2019-03-09T01:39:35.173Z,70.92
2019-03-09T01:42:05.466Z,71.51
2019-03-09T01:44:35.506Z,70.98
2019-03-09T01:47:05.785Z,70.78
2019-03-09T01:49:35.831Z,70.31
2019-03-09T01:52:05.885Z,70.16
2019-03-09T01:54:35.949Z,69.70
2019-03-09T01:57:05.985Z,69.94
2019-03-09T01:59:36.038Z,69.94
2019-03-09T02:02:06.083Z,69.83
2019-03-09T02:04:36.124Z,69.17
2019-03-09T02:07:06.141Z,69.78
2019-03-09T02:09:36.206Z,69.36
2019-03-09T02:12:06.550Z,68.97
2019-03-09T02:14:36.579Z,68.51
2019-03-09T02:17:06.597Z,69.15
2019-03-09T02:19:36.630Z,68.68
2019-03-09T02:22:06.653Z,69.00
2019-03-09T02:24:36.707Z,68.41
2019-03-09T02:27:06.725Z,68.79
2019-03-09T02:29:36.758Z,68.30
2019-03-09T02:32:06.808Z,68.69
2019-03-09T02:34:36.859Z,68.69
2019-03-09T02:37:06.857Z,69.04
2019-03-09T02:39:36.888Z,68.85
2019-03-09T02:42:07.266Z,68.28
2019-03-09T02:44:37.296Z,68.48
2019-03-09T02:47:07.320Z,68.38
2019-03-09T02:49:37.354Z,68.82
2019-03-09T02:52:07.386Z,68.93
2019-03-09T02:54:37.669Z,69.25
2019-03-09T02:57:07.692Z,68.39
2019-03-09T02:59:37.977Z,68.84
2019-03-09T03:02:08.009Z,68.78
2019-03-09T03:04:38.043Z,68.90
2019-03-09T03:07:08.059Z,68.88
2019-03-09T03:09:38.097Z,68.69
2019-03-09T03:12:08.107Z,68.87
2019-03-09T03:14:38.137Z,69.11
2019-03-09T03:17:08.155Z,68.71
2019-03-09T03:19:38.504Z,69.26
2019-03-09T03:22:08.610Z,69.26
2019-03-09T03:24:38.602Z,69.36
2019-03-09T03:27:08.591Z,69.36
2019-03-09T03:29:38.975Z,69.58
2019-03-09T03:32:09.022Z,69.61
2019-03-09T03:34:39.308Z,69.59
2019-03-09T03:37:09.343Z,69.75
2019-03-09T03:39:39.361Z,69.72
2019-03-09T03:42:09.662Z,69.45
2019-03-09T03:44:39.703Z,69.44
2019-03-09T03:47:10.010Z,69.17
2019-03-09T03:49:40.025Z,69.56
2019-03-09T03:52:10.349Z,68.74
2019-03-09T03:54:40.373Z,68.72
2019-03-09T03:57:10.418Z,68.53
2019-03-09T03:59:40.433Z,68.86
2019-03-09T04:02:10.465Z,67.95
2019-03-09T04:04:40.481Z,68.26
2019-03-09T04:07:10.850Z,67.49
2019-03-09T04:09:41.221Z,67.65
2019-03-09T04:12:11.551Z,67.42
2019-03-09T04:14:41.569Z,67.54
2019-03-09T04:17:11.613Z,67.88
2019-03-09T04:19:41.619Z,67.55
2019-03-09T04:22:11.648Z,67.25
2019-03-09T04:24:41.970Z,67.54
2019-03-09T04:27:12.009Z,68.05
2019-03-09T04:29:42.061Z,68.05
2019-03-09T04:32:12.103Z,67.45
2019-03-09T04:34:42.113Z,67.77
2019-03-09T04:37:12.145Z,68.33
2019-03-09T04:39:42.181Z,68.25
2019-03-09T04:42:12.199Z,69.29
2019-03-09T04:44:42.504Z,70.62
2019-03-09T04:47:12.553Z,70.74
2019-03-09T04:49:42.568Z,71.03
2019-03-09T04:52:12.598Z,72.67
2019-03-09T04:54:42.632Z,72.72
2019-03-09T04:57:12.652Z,72.67
2019-03-09T04:59:42.670Z,73.75
2019-03-09T05:02:12.706Z,74.22
2019-03-09T05:04:43.040Z,74.52
2019-03-09T05:07:13.059Z,74.72
2019-03-09T05:09:43.079Z,74.35
2019-03-09T05:12:13.386Z,74.31
2019-03-09T05:14:43.411Z,75.42
2019-03-09T05:17:13.441Z,75.01
2019-03-09T05:19:43.462Z,75.93
2019-03-09T05:22:13.495Z,76.28
2019-03-09T05:24:43.530Z,75.96
2019-03-09T05:27:13.962Z,76.76
2019-03-09T05:29:43.993Z,76.87
2019-03-09T05:32:14.018Z,76.91
2019-03-09T05:34:44.345Z,77.05
2019-03-09T05:37:14.378Z,77.23
2019-03-09T05:39:44.400Z,76.95
2019-03-09T05:42:14.823Z,77.58
2019-03-09T05:44:45.114Z,77.41
2019-03-09T05:47:15.452Z,78.04
2019-03-09T05:49:45.473Z,78.25
2019-03-09T05:52:21.423Z,79.20
2019-03-09T05:54:51.747Z,79.20
2019-03-09T05:57:21.782Z,79.64
2019-03-09T05:59:51.801Z,79.48
2019-03-09T06:02:21.836Z,78.82
2019-03-09T06:04:51.847Z,78.23
2019-03-09T06:07:21.887Z,78.23
2019-03-09T06:09:51.913Z,78.43
2019-03-09T06:12:21.955Z,78.71
2019-03-09T06:14:52.377Z,77.72
2019-03-09T06:17:22.618Z,77.72
2019-03-09T06:19:52.639Z,77.81
2019-03-09T06:22:22.677Z,78.13
2019-03-09T06:24:53.061Z,77.59
2019-03-09T06:27:23.088Z,76.79
2019-03-09T06:29:53.382Z,76.87
2019-03-09T06:32:32.626Z,76.70
2019-03-09T06:35:02.644Z,77.72
2019-03-09T06:37:32.674Z,77.72
2019-03-09T06:40:02.968Z,77.32
2019-03-09T06:45:37.438Z,78.09
2019-03-09T06:48:07.831Z,78.31
2019-03-09T06:50:37.949Z,77.94
2019-03-09T06:53:08.274Z,77.94
2019-03-09T06:55:38.309Z,78.46
2019-03-09T06:58:08.343Z,78.78
2019-03-09T07:00:38.359Z,78.63
2019-03-09T07:03:08.411Z,78.16
2019-03-09T07:05:38.430Z,78.05
2019-03-09T07:08:08.469Z,78.48
2019-03-09T07:10:38.504Z,77.95
2019-03-09T07:13:08.531Z,77.87
2019-03-09T07:15:38.546Z,78.28
2019-03-09T07:18:11.043Z,78.08
2019-03-09T07:20:41.056Z,78.08
2019-03-09T07:23:11.110Z,77.59
2019-03-09T07:25:41.144Z,77.55
2019-03-09T07:28:11.245Z,77.83
2019-03-09T07:30:41.198Z,77.77
2019-03-09T07:33:11.588Z,77.82
2019-03-09T07:35:41.608Z,78.29
2019-03-09T07:38:11.675Z,77.64
2019-03-09T07:40:41.683Z,77.64
2019-03-09T07:43:11.725Z,77.40
2019-03-09T07:45:41.742Z,77.95
2019-03-09T07:48:11.771Z,77.65
2019-03-09T07:50:42.101Z,77.57
2019-03-09T07:53:12.147Z,77.62
2019-03-09T07:55:42.438Z,77.14
2019-03-09T07:58:12.763Z,77.24
2019-03-09T08:00:42.786Z,77.42
2019-03-09T08:03:13.497Z,77.43
2019-03-09T08:05:43.441Z,77.04
2019-03-09T08:08:13.476Z,77.20
2019-03-09T08:10:43.765Z,76.82
2019-03-09T08:13:13.784Z,77.02
2019-03-09T08:15:44.094Z,76.30
2019-03-09T08:18:14.417Z,75.73
2019-03-09T08:20:44.443Z,75.73
2019-03-09T08:23:14.494Z,74.55
2019-03-09T08:25:44.502Z,74.00
2019-03-09T08:28:16.320Z,74.02
2019-03-09T08:30:44.572Z,73.73
2019-03-09T08:33:14.942Z,73.66
2019-03-09T08:35:44.988Z,73.46
2019-03-09T08:38:15.014Z,72.67
2019-03-09T08:40:45.029Z,72.71
2019-03-09T08:43:15.396Z,72.18
2019-03-09T08:45:45.725Z,71.46
2019-03-09T08:48:15.737Z,70.93
2019-03-09T08:50:46.059Z,70.84
2019-03-09T08:53:16.383Z,70.97
2019-03-09T08:55:46.409Z,69.87
2019-03-09T08:58:16.461Z,69.65
2019-03-09T09:00:46.731Z,69.17
2019-03-09T09:03:16.777Z,69.11
2019-03-09T09:05:47.069Z,68.63
2019-03-09T09:08:17.123Z,67.52
2019-03-09T09:10:47.509Z,67.44
2019-03-09T09:13:17.871Z,66.53
2019-03-09T09:15:47.853Z,66.90
2019-03-09T09:18:17.894Z,66.31
2019-03-09T09:20:47.915Z,65.98
2019-03-09T09:23:18.328Z,65.86
2019-03-09T09:25:48.617Z,65.43
2019-03-09T09:28:18.682Z,64.57
2019-03-09T09:30:48.712Z,64.52
2019-03-09T09:33:18.733Z,64.20
2019-03-09T09:35:48.760Z,63.97
2019-03-09T09:38:19.112Z,64.07
2019-03-09T09:40:49.434Z,63.61
2019-03-09T09:43:19.784Z,63.26
2019-03-09T09:45:49.778Z,62.92
2019-03-09T09:48:20.101Z,62.72
2019-03-09T09:50:50.137Z,62.71
2019-03-09T09:53:20.186Z,61.88
2019-03-09T09:55:50.223Z,62.05
2019-03-09T09:58:20.256Z,61.97
2019-03-09T10:00:50.282Z,60.81
2019-03-09T10:03:20.329Z,61.11
2019-03-09T10:05:50.342Z,60.96
2019-03-09T10:08:20.739Z,59.88
2019-03-09T10:10:50.753Z,59.99
2019-03-09T10:13:21.077Z,59.95
2019-03-09T10:15:51.111Z,59.95
2019-03-09T10:18:21.158Z,59.69
2019-03-09T10:20:51.193Z,59.91
2019-03-09T10:23:21.235Z,59.84
2019-03-09T10:25:51.544Z,59.76
2019-03-09T10:28:21.894Z,59.65
2019-03-09T10:30:51.918Z,59.18
2019-03-09T10:33:24.147Z,59.48
2019-03-09T10:35:51.967Z,59.22
2019-03-09T10:38:21.994Z,59.82
2019-03-09T10:40:52.352Z,59.96
2019-03-09T10:43:22.678Z,59.61
2019-03-09T10:45:52.700Z,59.45
2019-03-09T10:48:22.727Z,59.77
2019-03-09T10:50:53.051Z,60.08
2019-03-09T10:53:23.384Z,59.90
2019-03-09T10:55:53.690Z,59.92
2019-03-09T10:58:23.739Z,60.07
2019-03-09T11:00:53.742Z,60.13
2019-03-09T11:03:23.787Z,60.43
2019-03-09T11:05:53.807Z,60.51
2019-03-09T11:08:24.188Z,60.42
2019-03-09T11:10:54.494Z,60.54
2019-03-09T11:13:24.537Z,59.98
2019-03-09T11:15:54.553Z,60.55
2019-03-09T11:18:24.852Z,59.56
2019-03-09T11:20:54.880Z,59.67
2019-03-09T11:23:24.947Z,58.67
2019-03-09T11:25:55.196Z,59.17
2019-03-09T11:28:25.212Z,58.19
2019-03-09T11:30:55.242Z,58.74
2019-03-09T11:33:25.554Z,59.04
2019-03-09T11:35:55.598Z,58.77
2019-03-09T11:38:25.616Z,59.12
2019-03-09T11:40:58.660Z,59.29
2019-03-09T11:43:25.670Z,58.69
2019-03-09T11:45:55.704Z,58.73
2019-03-09T11:48:25.722Z,58.76
2019-03-09T11:50:56.067Z,58.56
2019-03-09T11:53:26.391Z,58.82
2019-03-09T11:55:56.714Z,58.39
2019-03-09T11:58:26.736Z,57.83
2019-03-09T12:00:57.061Z,58.34
2019-03-09T12:03:27.378Z,58.10
2019-03-09T12:05:57.410Z,58.08
2019-03-09T12:08:27.439Z,58.74
2019-03-09T12:10:57.474Z,57.49
2019-03-09T12:13:27.909Z,57.92
2019-03-09T12:15:59.257Z,58.47
2019-03-09T12:18:28.309Z,57.73
2019-03-09T12:20:58.333Z,57.26
2019-03-09T12:23:28.350Z,57.35
2019-03-09T12:25:58.665Z,57.72
2019-03-09T12:28:28.965Z,57.91
2019-03-09T12:33:38.634Z,58.47
2019-03-09T12:36:08.665Z,58.36
2019-03-09T12:38:38.689Z,58.76
2019-03-09T12:41:08.723Z,58.35
2019-03-09T12:43:38.747Z,58.06
2019-03-09T12:46:08.773Z,58.16
2019-03-09T12:48:38.815Z,57.79
2019-03-09T12:51:09.164Z,58.08
2019-03-09T12:53:39.186Z,57.67
2019-03-09T12:56:09.239Z,57.38
2019-03-09T12:58:39.272Z,57.68
2019-03-09T13:01:09.312Z,56.69
2019-03-09T13:03:39.343Z,56.61
2019-03-09T13:08:50.670Z,55.79
2019-03-09T13:11:20.735Z,55.97
2019-03-09T13:13:51.062Z,55.83
2019-03-09T13:16:21.080Z,55.71
2019-03-09T13:18:51.111Z,55.97
2019-03-09T13:21:21.150Z,56.31
2019-03-09T13:23:51.208Z,55.87
2019-03-09T13:26:21.239Z,55.16
2019-03-09T13:28:51.560Z,54.93
2019-03-09T13:31:21.622Z,54.50
2019-03-09T13:33:51.657Z,54.73
2019-03-09T13:36:21.708Z,54.95
2019-03-09T13:38:51.744Z,55.05
2019-03-09T13:41:22.149Z,54.96
2019-03-09T13:43:52.180Z,54.19
2019-03-09T13:46:22.232Z,54.77
2019-03-09T13:48:52.249Z,55.11
2019-03-09T13:51:22.285Z,54.41
2019-03-09T13:53:52.301Z,54.08
2019-03-09T13:56:22.356Z,54.52
2019-03-09T13:58:52.664Z,54.69
2019-03-09T14:01:22.980Z,54.45
2019-03-09T14:03:53.007Z,54.00
2019-03-09T14:06:23.319Z,54.31
2019-03-09T14:08:53.345Z,54.73
2019-03-09T14:11:23.397Z,54.80
2019-03-09T14:13:53.842Z,55.02
2019-03-09T14:16:23.814Z,54.90
2019-03-09T14:18:54.110Z,55.25
2019-03-09T14:21:24.149Z,53.81
2019-03-09T14:23:54.165Z,53.46
2019-03-09T14:26:24.201Z,53.97
2019-03-09T14:28:54.229Z,53.59
2019-03-09T14:31:24.605Z,53.06
2019-03-09T14:33:54.632Z,52.77
2019-03-09T14:36:24.674Z,53.38
2019-03-09T14:38:54.693Z,54.38
2019-03-09T14:41:25.053Z,53.81
2019-03-09T14:43:54.965Z,54.14
2019-03-09T14:46:25.035Z,54.15
2019-03-09T14:48:55.364Z,54.36
2019-03-09T14:51:25.750Z,54.83
2019-03-09T14:53:55.791Z,54.87
2019-03-09T14:56:25.834Z,54.63
2019-03-09T14:58:56.316Z,54.68
2019-03-09T15:01:26.329Z,55.38
2019-03-09T15:03:56.648Z,55.98
2019-03-09T15:06:26.682Z,56.08
2019-03-09T15:08:56.988Z,56.51
2019-03-09T15:11:27.454Z,56.98
2019-03-09T15:13:57.478Z,57.08
2019-03-09T15:16:27.534Z,57.19
2019-03-09T15:18:57.871Z,57.08
2019-03-09T15:21:27.911Z,57.63
2019-03-09T15:23:58.213Z,59.62
2019-03-09T15:26:28.252Z,61.41
2019-03-09T15:28:58.281Z,61.41
2019-03-09T15:31:28.324Z,60.99
2019-03-09T15:33:58.351Z,61.32
2019-03-09T15:36:28.694Z,61.56
2019-03-09T15:38:59.012Z,60.53
2019-03-09T15:41:29.052Z,60.47
2019-03-09T15:43:59.138Z,59.84
2019-03-09T15:46:29.471Z,60.44
2019-03-09T15:48:59.512Z,59.56
2019-03-09T15:51:29.812Z,59.46
2019-03-09T15:53:59.851Z,59.32
2019-03-09T15:56:30.152Z,59.47
2019-03-09T15:59:00.219Z,59.29
2019-03-09T16:01:30.251Z,59.16
2019-03-09T16:04:00.325Z,58.69
2019-03-09T16:06:30.354Z,59.16
2019-03-09T16:09:00.741Z,59.15
2019-03-09T16:11:31.065Z,58.55
2019-03-09T16:14:01.374Z,59.35
2019-03-09T16:16:31.419Z,62.25
2019-03-09T16:19:01.447Z,64.77
2019-03-09T16:21:31.848Z,66.92
2019-03-09T16:24:01.898Z,68.28
2019-03-09T16:26:31.949Z,68.47
2019-03-09T16:29:01.954Z,69.94
2019-03-09T16:31:31.989Z,70.48
2019-03-09T16:34:02.057Z,70.44
2019-03-09T16:36:32.446Z,70.99
2019-03-09T16:39:02.496Z,70.48
2019-03-09T16:41:33.288Z,69.67
2019-03-09T16:44:02.585Z,70.83
2019-03-09T16:46:32.663Z,70.51
2019-03-09T16:49:02.951Z,71.19
2019-03-09T16:51:32.992Z,71.78
2019-03-09T16:54:03.299Z,72.19
2019-03-09T16:56:33.667Z,72.13
2019-03-09T16:59:03.679Z,71.78
2019-03-09T17:01:33.705Z,71.65
2019-03-09T17:04:04.060Z,72.27
2019-03-09T17:06:34.391Z,73.78
2019-03-09T17:09:04.801Z,75.15
2019-03-09T17:11:35.116Z,76.13
2019-03-09T17:14:05.171Z,76.86
2019-03-09T17:16:35.238Z,75.36
2019-03-09T17:19:05.261Z,73.55
2019-03-09T17:21:35.361Z,72.90
2019-03-09T17:24:05.423Z,73.96
2019-03-09T17:26:35.743Z,73.07
2019-03-09T17:29:05.775Z,73.09
2019-03-09T17:31:35.827Z,73.07
2019-03-09T17:34:05.877Z,72.41
2019-03-09T17:36:36.199Z,70.98
2019-03-09T17:39:06.523Z,71.26
2019-03-09T17:41:36.560Z,70.42
2019-03-09T17:44:06.588Z,70.19
2019-03-09T17:46:36.966Z,69.60
2019-03-09T17:49:07.049Z,70.22
2019-03-09T17:51:37.069Z,70.30
2019-03-09T17:54:07.112Z,70.46
2019-03-09T17:56:37.139Z,70.57
2019-03-09T17:59:07.161Z,70.32
2019-03-09T18:01:37.592Z,70.70
2019-03-09T18:04:07.508Z,71.49
2019-03-09T18:06:37.533Z,72.16
2019-03-09T18:09:07.636Z,72.84
2019-03-09T18:11:37.767Z,76.63
2019-03-09T18:14:07.972Z,79.87
2019-03-09T18:16:38.292Z,79.49
2019-03-09T18:19:08.328Z,80.50
2019-03-09T18:21:38.715Z,79.30
2019-03-09T18:24:08.747Z,78.53
2019-03-09T18:26:39.088Z,79.11
2019-03-09T18:29:09.489Z,78.17
2019-03-09T18:31:39.821Z,77.50
2019-03-09T18:34:09.855Z,77.45
2019-03-09T18:36:40.152Z,77.99
2019-03-09T18:39:10.183Z,77.41
2019-03-09T18:41:40.204Z,76.45
2019-03-09T18:44:10.238Z,77.06
2019-03-09T18:46:40.640Z,75.55
2019-03-09T18:49:10.669Z,74.21
2019-03-09T18:51:40.679Z,73.65
2019-03-09T18:54:11.079Z,74.55
2019-03-09T18:56:41.111Z,74.60
2019-03-09T18:59:11.152Z,73.57
2019-03-09T19:01:41.181Z,72.93
2019-03-09T19:04:11.230Z,72.68
2019-03-09T19:06:41.558Z,72.00
2019-03-09T19:09:11.894Z,71.97
2019-03-09T19:11:42.200Z,71.14
2019-03-09T19:14:12.236Z,69.47
2019-03-09T19:16:42.540Z,69.34
2019-03-09T19:19:12.563Z,69.34
2019-03-09T19:21:42.869Z,69.58
2019-03-09T19:24:12.903Z,67.90
2019-03-09T19:26:42.919Z,67.90
2019-03-09T19:29:12.953Z,69.08
2019-03-09T19:31:42.977Z,68.31
2019-03-09T19:34:13.381Z,68.72
2019-03-09T19:39:22.775Z,67.21
2019-03-09T19:41:53.153Z,67.77
2019-03-09T19:44:23.175Z,67.78
2019-03-09T19:46:53.592Z,68.00
2019-03-09T19:49:23.899Z,68.00
2019-03-09T19:51:53.931Z,68.06
2019-03-09T19:54:23.968Z,67.57
2019-03-09T19:56:54.000Z,66.86
2019-03-09T19:59:24.040Z,67.37
2019-03-09T20:01:54.398Z,67.96
2019-03-09T20:04:24.732Z,67.57
2019-03-09T20:06:54.768Z,67.96
2019-03-09T20:09:24.825Z,66.67
2019-03-09T20:11:54.852Z,66.44
2019-03-09T20:14:24.888Z,67.26
2019-03-09T20:16:55.203Z,67.59
2019-03-09T20:19:25.243Z,67.59
2019-03-09T20:21:55.274Z,67.40
2019-03-09T20:24:25.303Z,67.48
2019-03-09T20:26:55.320Z,67.21
2019-03-09T20:29:25.379Z,67.37
2019-03-09T20:31:55.414Z,67.50
2019-03-09T20:34:25.447Z,67.33
2019-03-09T20:39:35.222Z,66.91
2019-03-09T20:42:05.494Z,66.91
2019-03-09T20:44:35.814Z,68.06
2019-03-09T20:47:05.831Z,68.22
2019-03-09T20:49:35.879Z,67.65
2019-03-09T20:52:05.906Z,68.27
2019-03-09T20:54:35.977Z,67.67
2019-03-09T20:57:06.003Z,66.73
2019-03-09T20:59:36.035Z,67.53
2019-03-09T21:02:06.060Z,68.02
2019-03-09T21:04:36.476Z,67.84
2019-03-09T21:07:06.496Z,68.35
2019-03-09T21:09:36.908Z,68.35
2019-03-09T21:12:07.206Z,68.23
2019-03-09T21:14:37.246Z,68.52
2019-03-09T21:17:07.300Z,67.59
2019-03-09T21:19:37.312Z,67.77
2019-03-09T21:22:07.693Z,68.36
2019-03-09T21:24:37.720Z,68.01
2019-03-09T21:27:08.026Z,68.01
2019-03-09T21:29:38.344Z,67.94
2019-03-09T21:32:08.358Z,67.94
2019-03-09T21:34:38.438Z,67.74
2019-03-09T21:37:08.450Z,68.02
2019-03-09T21:39:38.506Z,67.62
2019-03-09T21:42:08.824Z,68.20
2019-03-09T21:44:39.095Z,68.63
2019-03-09T21:47:09.469Z,68.50
2019-03-09T21:49:39.500Z,68.50
2019-03-09T21:52:09.809Z,68.29
2019-03-09T21:54:39.846Z,69.10
2019-03-09T21:57:10.150Z,69.56
2019-03-09T21:59:40.469Z,69.77
2019-03-09T22:02:10.804Z,69.96
2019-03-09T22:04:40.844Z,69.96
2019-03-09T22:07:10.857Z,69.56
2019-03-09T22:09:40.898Z,69.56
2019-03-09T22:12:10.907Z,69.71
2019-03-09T22:14:40.997Z,69.59
2019-03-09T22:20:33.031Z,68.34
2019-03-09T22:23:03.077Z,67.87
2019-03-09T22:25:33.366Z,68.03
2019-03-09T22:28:03.394Z,67.63
2019-03-09T22:30:33.700Z,68.33
2019-03-09T22:33:04.672Z,68.74
2019-03-09T22:35:33.806Z,68.91
2019-03-09T22:38:03.824Z,68.43
2019-03-09T22:40:33.882Z,68.34
2019-03-09T22:43:04.188Z,68.74
2019-03-09T22:45:34.225Z,69.40
2019-03-09T22:48:04.263Z,69.32
2019-03-09T22:50:34.289Z,69.32
2019-03-09T22:53:04.308Z,69.65
2019-03-09T22:55:34.713Z,69.69
2019-03-09T22:58:05.165Z,70.34
2019-03-09T23:00:35.138Z,70.26
2019-03-09T23:03:05.160Z,70.36
2019-03-09T23:05:35.222Z,70.71
2019-03-09T23:08:05.250Z,70.71
2019-03-09T23:10:35.288Z,70.98
2019-03-09T23:13:05.557Z,71.35
2019-03-09T23:15:35.913Z,71.58
2019-03-09T23:18:05.949Z,71.90
2019-03-09T23:20:36.261Z,72.15
2019-03-09T23:23:06.576Z,72.26
2019-03-09T23:25:36.896Z,72.26
2019-03-09T23:28:07.225Z,72.30
2019-03-09T23:30:37.507Z,72.36
2019-03-09T23:33:07.533Z,72.43
2019-03-09T23:35:37.575Z,72.49
2019-03-09T23:38:08.010Z,72.53
2019-03-09T23:40:37.937Z,72.51
2019-03-09T23:43:08.246Z,72.73
2019-03-09T23:45:38.467Z,72.14
2019-03-09T23:48:08.482Z,72.14
2019-03-09T23:50:38.589Z,72.39
2019-03-09T23:53:08.611Z,72.36
2019-03-09T23:55:38.651Z,72.55
2019-03-09T23:58:08.679Z,72.63
